createdAt,value
2022-07-27T00:01:14.347Z,79.40
2022-07-27T00:03:41.560Z,79.50
2022-07-27T00:06:08.367Z,79.70
2022-07-27T00:08:35.836Z,80.60
2022-07-27T00:11:02.984Z,80.10
2022-07-27T00:13:30.726Z,80.10
2022-07-27T00:15:57.773Z,80.30
2022-07-27T00:18:24.579Z,80.50
2022-07-27T00:20:51.353Z,80.60
2022-07-27T00:23:18.619Z,80.70
2022-07-27T00:25:45.438Z,80.90
2022-07-27T00:28:12.156Z,80.90
2022-07-27T00:30:38.888Z,81.10
2022-07-27T00:33:08.496Z,81.20
2022-07-27T00:35:35.898Z,81.40
2022-07-27T00:38:02.790Z,81.50
2022-07-27T00:40:29.553Z,81.70
2022-07-27T00:42:56.229Z,81.90
2022-07-27T00:45:22.900Z,82.10
2022-07-27T00:47:54.546Z,82.20
2022-07-27T00:50:21.670Z,82.30
2022-07-27T00:52:49.043Z,82.50
2022-07-27T00:55:16.083Z,82.60
2022-07-27T00:57:57.874Z,82.60
2022-07-27T01:00:27.632Z,82.80
2022-07-27T01:02:54.981Z,83.00
2022-07-27T01:05:24.638Z,83.10
2022-07-27T01:08:03.766Z,83.20
2022-07-27T01:10:30.554Z,83.10
2022-07-27T01:12:57.374Z,83.10
2022-07-27T01:15:24.095Z,83.20
2022-07-27T01:17:50.774Z,83.40
2022-07-27T01:20:17.692Z,83.50
2022-07-27T01:22:44.365Z,83.80
2022-07-27T01:25:11.554Z,84.00
2022-07-27T01:27:38.259Z,85.00
2022-07-27T01:30:26.425Z,84.40
2022-07-27T01:33:01.117Z,84.50
2022-07-27T01:35:27.993Z,84.70
2022-07-27T01:37:54.680Z,84.80
2022-07-27T01:40:22.323Z,84.90
2022-07-27T01:42:49.100Z,84.90
2022-07-27T01:45:15.867Z,85.00
2022-07-27T01:47:42.669Z,85.10
2022-07-27T01:50:10.547Z,85.10
2022-07-27T01:52:39.169Z,85.20
2022-07-27T01:55:08.755Z,85.30
2022-07-27T01:57:35.438Z,85.30
2022-07-27T02:00:03.986Z,85.40
2022-07-27T02:02:30.768Z,85.50
2022-07-27T02:04:57.495Z,85.50
2022-07-27T02:07:24.353Z,85.50
2022-07-27T02:09:51.030Z,85.50
2022-07-27T02:12:35.766Z,85.60
2022-07-27T02:15:06.075Z,85.80
2022-07-27T02:17:33.091Z,85.80
2022-07-27T02:20:02.177Z,85.80
2022-07-27T02:22:28.858Z,85.80
2022-07-27T02:24:55.999Z,85.90
2022-07-27T02:27:22.905Z,86.10
2022-07-27T02:29:49.981Z,86.20
2022-07-27T02:32:16.791Z,86.40
2022-07-27T02:34:43.830Z,86.50
2022-07-27T02:37:10.578Z,86.60
2022-07-27T02:39:37.482Z,86.60
2022-07-27T02:42:04.904Z,86.60
2022-07-27T02:44:31.879Z,86.50
2022-07-27T02:47:01.931Z,86.60
2022-07-27T02:49:28.724Z,86.60
2022-07-27T02:51:56.164Z,86.70
2022-07-27T02:54:24.640Z,86.60
2022-07-27T02:56:56.225Z,86.60
2022-07-27T02:59:23.359Z,86.50
2022-07-27T03:01:51.109Z,86.40
2022-07-27T03:04:19.054Z,86.50
2022-07-27T03:06:46.194Z,86.50
2022-07-27T03:09:13.674Z,86.60
2022-07-27T03:11:40.813Z,86.70
2022-07-27T03:14:07.549Z,86.90
2022-07-27T03:16:34.281Z,87.00
2022-07-27T03:19:01.077Z,87.10
2022-07-27T03:21:27.835Z,87.10
2022-07-27T03:23:54.596Z,87.20
2022-07-27T03:26:21.385Z,87.20
2022-07-27T03:28:48.092Z,87.30
2022-07-27T03:31:14.894Z,87.40
2022-07-27T03:33:41.636Z,87.60
2022-07-27T03:36:08.402Z,87.70
2022-07-27T03:38:35.320Z,87.60
2022-07-27T03:41:03.669Z,87.60
2022-07-27T03:43:30.635Z,87.60
2022-07-27T03:45:57.409Z,87.60
2022-07-27T03:48:24.325Z,87.60
2022-07-27T03:50:51.093Z,87.50
2022-07-27T03:53:17.766Z,87.50
2022-07-27T03:55:44.952Z,87.60
2022-07-27T03:58:11.686Z,87.60
2022-07-27T04:00:38.457Z,87.60
2022-07-27T04:03:05.235Z,87.70
2022-07-27T04:05:32.080Z,87.70
2022-07-27T04:07:58.837Z,87.70
2022-07-27T04:10:29.259Z,87.80
2022-07-27T04:12:59.016Z,87.70
2022-07-27T04:15:26.296Z,87.70
2022-07-27T04:17:56.902Z,87.60
2022-07-27T04:20:25.004Z,88.40
2022-07-27T04:22:51.725Z,87.70
2022-07-27T04:25:18.579Z,87.70
2022-07-27T04:27:45.439Z,87.60
2022-07-27T04:30:12.613Z,87.80
2022-07-27T04:32:39.899Z,87.80
2022-07-27T04:35:07.830Z,87.70
2022-07-27T04:37:35.071Z,87.60
2022-07-27T04:40:02.001Z,87.60
2022-07-27T04:42:29.777Z,87.60
2022-07-27T04:44:56.635Z,87.60
2022-07-27T04:47:23.401Z,87.60
2022-07-27T04:49:50.119Z,87.40
2022-07-27T04:52:17.631Z,87.30
2022-07-27T04:54:45.409Z,87.30
2022-07-27T04:57:12.202Z,87.30
2022-07-27T04:59:38.884Z,87.10
2022-07-27T05:02:05.562Z,87.00
2022-07-27T05:04:32.344Z,87.10
2022-07-27T05:06:59.144Z,87.10
2022-07-27T05:09:25.947Z,87.10
2022-07-27T05:11:53.167Z,87.00
2022-07-27T05:14:21.516Z,87.10
2022-07-27T05:16:49.879Z,87.20
2022-07-27T05:19:16.746Z,87.20
2022-07-27T05:21:43.832Z,87.20
2022-07-27T05:24:10.662Z,87.30
2022-07-27T05:26:37.838Z,87.30
2022-07-27T05:29:04.963Z,87.40
2022-07-27T05:31:31.818Z,87.40
2022-07-27T05:33:58.823Z,87.40
2022-07-27T05:36:26.225Z,87.40
2022-07-27T05:38:52.973Z,87.30
2022-07-27T05:41:24.584Z,87.20
2022-07-27T05:43:51.686Z,87.00
2022-07-27T05:46:18.494Z,87.00
2022-07-27T05:48:45.395Z,87.00
2022-07-27T05:51:12.372Z,86.80
2022-07-27T05:53:39.187Z,86.70
2022-07-27T05:56:08.084Z,86.60
2022-07-27T05:58:35.216Z,86.50
2022-07-27T06:01:02.160Z,86.20
2022-07-27T06:03:29.097Z,86.10
2022-07-27T06:06:16.037Z,85.90
2022-07-27T06:08:42.906Z,85.60
2022-07-27T06:11:09.711Z,85.40
2022-07-27T06:13:37.111Z,85.40
2022-07-27T06:16:09.567Z,85.40
2022-07-27T06:18:36.445Z,85.10
2022-07-27T06:21:03.497Z,84.90
2022-07-27T06:23:30.817Z,84.80
2022-07-27T06:25:57.850Z,84.50
2022-07-27T06:28:24.603Z,84.30
2022-07-27T06:30:53.466Z,84.00
2022-07-27T06:33:38.404Z,84.00
2022-07-27T06:36:05.884Z,83.90
2022-07-27T06:38:32.640Z,83.80
2022-07-27T06:40:59.431Z,83.70
2022-07-27T06:43:31.732Z,83.60
2022-07-27T06:45:59.449Z,83.40
2022-07-27T06:48:26.888Z,83.20
2022-07-27T06:50:54.441Z,83.00
2022-07-27T06:53:21.869Z,82.90
2022-07-27T06:55:49.280Z,82.60
2022-07-27T06:58:16.738Z,82.40
2022-07-27T07:00:43.583Z,82.20
2022-07-27T07:03:11.283Z,81.90
2022-07-27T07:05:46.750Z,81.70
2022-07-27T07:08:14.747Z,81.30
2022-07-27T07:10:43.368Z,81.10
2022-07-27T07:13:10.433Z,80.70
2022-07-27T07:15:39.127Z,80.20
2022-07-27T07:18:07.835Z,79.80
2022-07-27T07:20:36.339Z,79.20
2022-07-27T07:23:03.688Z,78.90
2022-07-27T07:25:31.023Z,78.60
2022-07-27T07:27:58.161Z,78.30
2022-07-27T07:30:24.960Z,77.80
2022-07-27T07:32:51.900Z,77.40
2022-07-27T07:35:18.975Z,77.20
2022-07-27T07:37:45.835Z,76.70
2022-07-27T07:40:43.242Z,76.40
2022-07-27T07:43:04.636Z,76.20
2022-07-27T07:45:35.308Z,75.90
2022-07-27T07:48:02.044Z,75.50
2022-07-27T07:50:28.882Z,75.20
2022-07-27T07:52:55.879Z,74.60
2022-07-27T07:55:25.093Z,74.40
2022-07-27T07:57:52.190Z,73.90
2022-07-27T08:00:19.421Z,73.70
2022-07-27T08:02:48.044Z,73.30
2022-07-27T08:05:15.478Z,72.90
2022-07-27T08:07:43.738Z,72.60
2022-07-27T08:10:12.154Z,72.30
2022-07-27T08:12:41.077Z,72.10
2022-07-27T08:15:08.884Z,71.70
2022-07-27T08:17:36.569Z,71.50
2022-07-27T08:20:04.377Z,71.30
2022-07-27T08:22:33.782Z,70.80
2022-07-27T08:25:00.587Z,70.60
2022-07-27T08:27:28.189Z,70.30
2022-07-27T08:29:55.037Z,69.90
2022-07-27T08:32:21.996Z,69.40
2022-07-27T08:34:48.871Z,68.90
2022-07-27T08:37:15.962Z,68.50
2022-07-27T08:42:31.360Z,67.80
2022-07-27T08:44:58.658Z,67.60
2022-07-27T08:47:27.312Z,67.40
2022-07-27T08:49:54.240Z,67.30
2022-07-27T08:52:22.541Z,67.00
2022-07-27T08:54:49.959Z,66.80
2022-07-27T08:57:17.042Z,66.50
2022-07-27T08:59:43.830Z,66.00
2022-07-27T09:02:14.098Z,66.40
2022-07-27T09:04:41.338Z,65.20
2022-07-27T09:07:08.337Z,64.90
2022-07-27T09:09:47.000Z,64.50
2022-07-27T09:12:13.903Z,63.80
2022-07-27T09:14:41.892Z,63.60
2022-07-27T09:20:18.036Z,63.60
2022-07-27T09:22:52.367Z,62.90
2022-07-27T09:26:01.573Z,62.80
2022-07-27T09:28:30.247Z,62.50
2022-07-27T09:31:11.902Z,62.20
2022-07-27T09:33:46.143Z,61.60
2022-07-27T09:36:13.379Z,61.10
2022-07-27T09:39:11.136Z,61.00
2022-07-27T09:41:53.085Z,60.30
2022-07-27T09:44:42.211Z,60.00
2022-07-27T09:47:27.567Z,59.70
2022-07-27T09:49:58.277Z,59.40
2022-07-27T09:52:30.719Z,60.00
2022-07-27T09:55:07.127Z,59.10
2022-07-27T09:57:57.696Z,59.10
2022-07-27T10:00:26.302Z,58.90
2022-07-27T10:02:54.007Z,59.00
2022-07-27T10:05:24.199Z,59.00
2022-07-27T10:07:53.403Z,59.00
2022-07-27T10:10:21.780Z,59.00
2022-07-27T10:12:53.979Z,59.10
2022-07-27T10:15:25.973Z,59.20
2022-07-27T10:18:06.865Z,59.00
2022-07-27T10:20:38.331Z,58.80
2022-07-27T10:23:05.199Z,58.70
2022-07-27T10:25:37.981Z,58.30
2022-07-27T10:28:15.756Z,57.80
2022-07-27T10:30:42.575Z,57.40
2022-07-27T10:33:42.128Z,57.10
2022-07-27T10:36:37.966Z,56.60
2022-07-27T10:39:08.102Z,56.80
2022-07-27T10:41:40.421Z,56.80
2022-07-27T10:44:18.872Z,56.80
2022-07-27T10:47:05.969Z,56.60
2022-07-27T10:49:40.687Z,56.50
2022-07-27T10:52:48.644Z,56.80
2022-07-27T10:55:30.584Z,57.00
2022-07-27T10:58:03.293Z,57.00
2022-07-27T11:00:53.717Z,57.10
2022-07-27T11:03:22.299Z,57.10
2022-07-27T11:06:30.775Z,57.20
2022-07-27T11:09:16.939Z,56.90
2022-07-27T11:11:39.206Z,56.60
2022-07-27T11:14:06.037Z,56.50
2022-07-27T11:16:39.641Z,56.40
2022-07-27T11:19:17.684Z,56.30
2022-07-27T11:21:46.558Z,56.20
2022-07-27T11:24:17.498Z,56.20
2022-07-27T11:26:49.997Z,56.10
2022-07-27T11:29:18.739Z,55.90
2022-07-27T11:31:57.149Z,55.80
2022-07-27T11:34:29.231Z,55.40
2022-07-27T11:36:58.269Z,55.30
2022-07-27T11:42:18.759Z,55.20
2022-07-27T11:44:48.976Z,55.20
2022-07-27T11:47:20.287Z,54.90
2022-07-27T11:49:47.338Z,54.60
2022-07-27T11:52:17.561Z,54.40
2022-07-27T11:54:50.439Z,53.90
2022-07-27T11:57:18.666Z,53.60
2022-07-27T11:59:46.173Z,53.40
2022-07-27T12:02:17.805Z,53.20
2022-07-27T12:04:47.132Z,53.30
2022-07-27T12:07:30.878Z,53.50
2022-07-27T12:10:02.489Z,53.50
2022-07-27T12:12:30.076Z,53.60
2022-07-27T12:15:22.040Z,53.70
2022-07-27T12:17:57.416Z,53.50
2022-07-27T12:20:33.106Z,53.50
2022-07-27T12:23:05.231Z,53.70
2022-07-27T12:25:33.363Z,53.80
2022-07-27T12:28:09.392Z,53.90
2022-07-27T12:30:45.198Z,54.00
2022-07-27T12:33:32.005Z,54.20
2022-07-27T12:36:00.235Z,54.20
2022-07-27T12:38:38.600Z,54.30
2022-07-27T12:41:05.729Z,54.20
2022-07-27T12:43:32.558Z,54.20
2022-07-27T12:46:09.906Z,54.20
2022-07-27T12:48:41.902Z,54.30
2022-07-27T12:51:10.193Z,54.20
2022-07-27T12:53:38.647Z,54.20
2022-07-27T12:56:08.277Z,54.20
2022-07-27T12:58:37.233Z,54.20
2022-07-27T13:01:05.101Z,54.10
2022-07-27T13:03:31.991Z,54.00
2022-07-27T13:05:58.757Z,54.00
2022-07-27T13:08:25.632Z,54.00
2022-07-27T13:10:52.599Z,53.90
2022-07-27T13:13:24.563Z,53.80
2022-07-27T13:15:52.678Z,53.80
2022-07-27T13:18:23.503Z,53.80
2022-07-27T13:20:51.528Z,53.60
2022-07-27T13:23:18.340Z,53.50
2022-07-27T13:25:45.317Z,53.50
2022-07-27T13:28:12.346Z,53.50
2022-07-27T13:30:39.094Z,53.50
2022-07-27T13:33:05.857Z,53.60
2022-07-27T13:35:32.706Z,53.80
2022-07-27T13:37:59.560Z,53.80
2022-07-27T13:40:26.313Z,53.70
2022-07-27T13:42:54.225Z,53.60
2022-07-27T13:45:21.039Z,53.70
2022-07-27T13:47:48.328Z,53.70
2022-07-27T13:50:19.405Z,53.60
2022-07-27T13:52:50.027Z,53.70
2022-07-27T13:55:17.879Z,53.80
2022-07-27T13:57:45.950Z,53.90
2022-07-27T14:00:13.333Z,54.00
2022-07-27T14:02:41.783Z,54.20
2022-07-27T14:05:09.763Z,54.10
2022-07-27T14:07:40.220Z,54.00
2022-07-27T14:10:26.267Z,54.60
2022-07-27T14:12:58.849Z,53.90
2022-07-27T14:15:26.551Z,54.00
2022-07-27T14:17:53.647Z,54.10
2022-07-27T14:20:20.766Z,54.30
2022-07-27T14:22:47.509Z,54.40
2022-07-27T14:25:14.818Z,54.40
2022-07-27T14:27:42.298Z,54.50
2022-07-27T14:30:10.037Z,54.60
2022-07-27T14:32:37.120Z,54.70
2022-07-27T14:35:06.054Z,54.80
2022-07-27T14:37:34.372Z,54.80
2022-07-27T14:40:02.147Z,54.90
2022-07-27T14:42:28.965Z,55.10
2022-07-27T14:44:55.941Z,55.10
2022-07-27T14:47:23.608Z,55.10
2022-07-27T14:49:50.806Z,55.00
2022-07-27T14:52:18.721Z,54.80
2022-07-27T14:54:47.291Z,54.90
2022-07-27T14:57:15.015Z,54.70
2022-07-27T14:59:42.149Z,54.50
2022-07-27T15:02:09.440Z,54.40
2022-07-27T15:04:36.298Z,54.30
2022-07-27T15:07:03.173Z,54.20
2022-07-27T15:09:30.412Z,54.00
2022-07-27T15:11:59.140Z,54.00
2022-07-27T15:14:26.886Z,54.00
2022-07-27T15:16:54.579Z,53.90
2022-07-27T15:19:21.735Z,53.90
2022-07-27T15:21:48.654Z,53.80
2022-07-27T15:24:16.498Z,53.80
2022-07-27T15:26:43.354Z,53.60
2022-07-27T15:29:14.775Z,53.50
2022-07-27T15:31:42.662Z,53.50
2022-07-27T15:34:09.598Z,53.50
2022-07-27T15:36:42.686Z,53.80
2022-07-27T15:39:12.607Z,53.40
2022-07-27T15:41:39.861Z,53.20
2022-07-27T15:44:07.597Z,53.10
2022-07-27T15:46:34.985Z,53.00
2022-07-27T15:49:02.465Z,53.00
2022-07-27T15:51:29.464Z,53.00
2022-07-27T15:53:57.358Z,52.90
2022-07-27T15:56:25.035Z,52.70
2022-07-27T15:58:52.099Z,52.70
2022-07-27T16:01:20.796Z,52.60
2022-07-27T16:03:48.852Z,52.60
2022-07-27T16:06:16.370Z,52.60
2022-07-27T16:08:46.305Z,52.70
2022-07-27T16:11:13.155Z,52.80
2022-07-27T16:13:40.126Z,52.60
2022-07-27T16:16:21.936Z,52.50
2022-07-27T16:18:49.127Z,52.50
2022-07-27T16:21:15.892Z,52.30
2022-07-27T16:23:42.675Z,52.30
2022-07-27T16:26:09.937Z,52.20
2022-07-27T16:28:39.469Z,52.10
2022-07-27T16:31:08.948Z,52.10
2022-07-27T16:33:37.253Z,52.20
2022-07-27T16:36:05.608Z,52.20
2022-07-27T16:38:32.656Z,52.20
2022-07-27T16:40:59.704Z,52.30
2022-07-27T16:43:36.343Z,52.30
2022-07-27T16:46:07.850Z,52.30
2022-07-27T16:48:42.636Z,52.30
2022-07-27T16:51:14.430Z,52.40
2022-07-27T16:53:44.161Z,52.40
2022-07-27T16:56:11.811Z,52.40
2022-07-27T16:58:39.363Z,52.50
2022-07-27T17:01:06.823Z,52.50
2022-07-27T17:03:34.109Z,52.60
2022-07-27T17:06:06.079Z,52.60
2022-07-27T17:08:34.237Z,52.70
2022-07-27T17:11:02.551Z,52.90
2022-07-27T17:13:33.618Z,52.80
2022-07-27T17:16:02.190Z,52.80
2022-07-27T17:18:29.240Z,52.90
2022-07-27T17:20:56.027Z,52.80
2022-07-27T17:23:22.862Z,52.80
2022-07-27T17:25:49.906Z,52.80
2022-07-27T17:28:16.895Z,52.90
2022-07-27T17:30:43.613Z,52.80
2022-07-27T17:33:10.521Z,52.80
2022-07-27T17:35:37.394Z,52.80
2022-07-27T17:38:06.499Z,52.80
2022-07-27T17:40:34.541Z,52.70
2022-07-27T17:43:01.437Z,52.90
2022-07-27T17:45:28.169Z,52.90
2022-07-27T17:47:54.913Z,53.10
2022-07-27T17:50:21.787Z,53.00
2022-07-27T17:52:48.497Z,53.10
2022-07-27T17:55:15.308Z,53.20
2022-07-27T17:57:42.162Z,53.20
2022-07-27T18:00:10.897Z,53.30
2022-07-27T18:02:37.650Z,53.30
2022-07-27T18:05:04.828Z,53.30
2022-07-27T18:07:39.092Z,53.40
2022-07-27T18:10:08.317Z,53.40
2022-07-27T18:12:35.684Z,53.50
2022-07-27T18:15:21.906Z,53.50
2022-07-27T18:17:48.672Z,53.60
2022-07-27T18:20:15.845Z,53.60
2022-07-27T18:22:42.621Z,53.70
2022-07-27T18:25:09.785Z,53.70
2022-07-27T18:27:36.981Z,53.80
2022-07-27T18:30:05.756Z,53.90
2022-07-27T18:32:33.372Z,54.00
2022-07-27T18:35:01.509Z,54.00
2022-07-27T18:37:28.355Z,54.00
2022-07-27T18:39:55.096Z,54.10
2022-07-27T18:42:21.975Z,54.20
2022-07-27T18:44:48.672Z,54.30
2022-07-27T18:47:15.411Z,54.40
2022-07-27T18:49:42.183Z,54.50
2022-07-27T18:52:08.981Z,55.20
2022-07-27T18:54:35.831Z,54.80
2022-07-27T18:57:02.542Z,54.90
2022-07-27T18:59:30.026Z,55.00
2022-07-27T19:01:57.140Z,55.10
2022-07-27T19:04:24.631Z,55.20
2022-07-27T19:06:52.687Z,55.20
2022-07-27T19:09:19.472Z,55.30
2022-07-27T19:11:46.208Z,55.40
2022-07-27T19:14:13.002Z,55.50
2022-07-27T19:16:39.960Z,55.60
2022-07-27T19:19:13.494Z,55.70
2022-07-27T19:21:41.790Z,55.80
2022-07-27T19:24:08.767Z,55.90
2022-07-27T19:26:35.938Z,56.00
2022-07-27T19:29:02.770Z,56.10
2022-07-27T19:31:29.722Z,56.30
2022-07-27T19:33:56.713Z,56.50
2022-07-27T19:36:23.484Z,56.70
2022-07-27T19:38:50.727Z,57.10
2022-07-27T19:41:18.099Z,57.50
2022-07-27T19:43:44.941Z,57.70
2022-07-27T19:46:11.719Z,58.00
2022-07-27T19:48:38.721Z,58.30
2022-07-27T19:51:07.254Z,58.40
2022-07-27T19:53:35.570Z,58.70
2022-07-27T19:56:02.922Z,58.90
2022-07-27T19:58:29.868Z,59.40
2022-07-27T20:00:56.897Z,59.20
2022-07-27T20:03:23.799Z,59.30
2022-07-27T20:05:51.136Z,59.50
2022-07-27T20:08:18.360Z,59.60
2022-07-27T20:10:47.208Z,59.60
2022-07-27T20:13:14.720Z,59.70
2022-07-27T20:15:41.616Z,59.60
2022-07-27T20:18:09.679Z,59.70
2022-07-27T20:20:36.530Z,59.80
2022-07-27T20:23:03.529Z,59.80
2022-07-27T20:25:30.303Z,59.90
2022-07-27T20:27:57.209Z,59.90
2022-07-27T20:30:23.949Z,60.00
2022-07-27T20:32:50.859Z,60.00
2022-07-27T20:35:18.065Z,59.90
2022-07-27T20:37:46.290Z,59.90
2022-07-27T20:40:13.592Z,60.00
2022-07-27T20:42:42.098Z,60.00
2022-07-27T20:45:11.362Z,60.00
2022-07-27T20:47:38.545Z,60.10
2022-07-27T20:50:15.523Z,60.00
2022-07-27T20:52:42.452Z,60.00
2022-07-27T20:55:10.211Z,60.00
2022-07-27T20:57:37.410Z,60.00
2022-07-27T21:00:06.628Z,59.80
2022-07-27T21:02:33.823Z,59.80
2022-07-27T21:05:00.672Z,59.40
2022-07-27T21:07:27.615Z,59.40
2022-07-27T21:09:54.370Z,59.30
2022-07-27T21:12:21.179Z,59.10
2022-07-27T21:14:48.289Z,59.10
2022-07-27T21:17:15.003Z,59.00
2022-07-27T21:19:41.885Z,59.00
2022-07-27T21:22:08.604Z,59.00
2022-07-27T21:24:36.832Z,58.90
2022-07-27T21:27:04.694Z,58.90
2022-07-27T21:29:32.078Z,58.90
2022-07-27T21:31:58.975Z,58.90
2022-07-27T21:34:25.904Z,58.90
2022-07-27T21:36:52.687Z,58.90
2022-07-27T21:39:20.868Z,58.90
2022-07-27T21:41:47.768Z,58.90
2022-07-27T21:44:15.068Z,59.00
2022-07-27T21:46:42.500Z,59.10
2022-07-27T21:49:10.577Z,59.10
2022-07-27T21:51:38.336Z,59.20
2022-07-27T21:54:06.488Z,59.20
2022-07-27T21:56:41.914Z,59.10
2022-07-27T21:59:09.927Z,59.30
2022-07-27T22:01:36.814Z,59.30
2022-07-27T22:04:03.738Z,59.40
2022-07-27T22:06:30.567Z,59.30
2022-07-27T22:08:57.344Z,59.50
2022-07-27T22:11:24.607Z,59.60
2022-07-27T22:13:51.376Z,59.60
2022-07-27T22:16:18.170Z,59.70
2022-07-27T22:18:45.035Z,59.70
2022-07-27T22:21:11.812Z,59.80
2022-07-27T22:23:38.665Z,59.80
2022-07-27T22:26:05.769Z,59.90
2022-07-27T22:28:32.554Z,59.90
2022-07-27T22:31:00.173Z,60.00
2022-07-27T22:33:46.097Z,60.10
2022-07-27T22:36:13.074Z,60.10
2022-07-27T22:38:39.930Z,60.00
2022-07-27T22:41:07.267Z,60.10
2022-07-27T22:43:34.459Z,60.20
2022-07-27T22:46:03.531Z,60.20
2022-07-27T22:48:30.396Z,60.20
2022-07-27T22:50:57.373Z,60.20
2022-07-27T22:53:24.117Z,60.30
2022-07-27T22:55:50.913Z,60.30
2022-07-27T22:58:17.697Z,60.40
2022-07-27T23:00:44.482Z,60.40
2022-07-27T23:03:11.322Z,60.70
2022-07-27T23:05:38.200Z,60.60
2022-07-27T23:08:05.378Z,60.70
2022-07-27T23:10:47.143Z,60.80
2022-07-27T23:13:15.724Z,60.80
2022-07-27T23:15:43.509Z,60.80
2022-07-27T23:18:10.666Z,61.00
2022-07-27T23:20:37.697Z,61.00
2022-07-27T23:23:05.085Z,61.10
2022-07-27T23:25:42.396Z,61.20
2022-07-27T23:28:09.151Z,61.30
2022-07-27T23:30:35.877Z,61.30
2022-07-27T23:33:02.718Z,61.40
2022-07-27T23:35:29.754Z,61.50
2022-07-27T23:37:56.710Z,61.60
2022-07-27T23:40:23.597Z,61.70
2022-07-27T23:42:50.466Z,61.80
2022-07-27T23:45:17.597Z,61.90
2022-07-27T23:47:44.886Z,62.00
2022-07-27T23:50:11.845Z,62.90
2022-07-27T23:52:38.553Z,62.20
2022-07-27T23:55:06.165Z,62.40
2022-07-27T23:57:33.090Z,62.40
2022-07-27T23:59:59.798Z,62.50
